ADDS METAR Data INFO
IDs: Format: Raw Decoded Include TAF

Data at: 2331 UTC 19 Oct 2017

K11R 192315Z AUTO 13004KT 10SM -RA SCT050 SCT065 OVC100 27/18 A3006 RMK AO2 T02650176
K11R 192255Z AUTO 11007KT 10SM BKN100 28/17 A3006 RMK AO2 T02750168
K11R 192235Z AUTO 09005KT 10SM SCT055 SCT120 28/17 A3006 RMK AO2 T02820165
K11R 192215Z AUTO 12007KT 10SM SCT055 29/16 A3006 RMK AO2 T02880161
K11R 192155Z AUTO 10006KT 10SM CLR 29/16 A3006 RMK AO2 T02920157
K11R 192135Z AUTO 12005KT 10SM CLR 29/16 A3007 RMK AO2 T02870155
K11R 192115Z AUTO 11006KT 10SM SCT049 29/16 A3007 RMK AO2 T02890156
K11R 192055Z AUTO 13004KT 10SM SCT049 29/15 A3007 RMK AO2 T02920154
K11R 192035Z AUTO 13005KT 10SM SCT049 29/16 A3008 RMK AO2 T02920162
K11R 192015Z AUTO 15005KT 10SM SCT049 29/16 A3008 RMK AO2 T02920161
K11R 191955Z AUTO 15004KT 10SM SCT047 29/16 A3009 RMK AO2 T02910159
K11R 191935Z AUTO 10007KT 10SM SCT047 29/17 A3009 RMK AO2 T02890169
K11R 191915Z AUTO 10003KT 10SM CLR 28/16 A3010 RMK AO2 T02790164
K11R 191855Z AUTO 08006KT 10SM SCT043 29/18 A3010 RMK AO2 T02860175
K11R 191835Z AUTO 06004KT 10SM CLR 29/17 A3011 RMK AO2 T02850166
K11R 191815Z AUTO 00000KT 10SM CLR 28/17 A3012 RMK AO2 T02800171
K11R 191755Z AUTO 09005KT 10SM CLR 28/17 A3013 RMK AO2 T02800167 10280 20121
K11R 191735Z AUTO 11007KT 070V140 10SM CLR 28/18 A3014 RMK AO2 T02750178
K11R 191715Z AUTO 14004KT 10SM CLR 27/18 A3015 RMK AO2 T02720181
K11R 191655Z AUTO 14006KT 10SM CLR 27/18 A3016 RMK AO2 T02700180
K11R 191635Z AUTO 11004KT 10SM CLR 26/18 A3016 RMK AO2 T02620177
K11R 191615Z AUTO 14007KT 10SM CLR 26/18 A3016 RMK AO2 T02610181
K11R 191555Z AUTO 11005KT 10SM CLR 26/18 A3016 RMK AO2 T02600180
K11R 191535Z AUTO 00000KT 10SM CLR 25/18 A3016 RMK AO2 T02490183
K11R 191515Z AUTO 12005KT 10SM CLR 24/18 A3016 RMK AO2 T02420183
K11R 191455Z AUTO 00000KT 10SM CLR 22/19 A3015 RMK AO2 T02240185
K11R 191435Z AUTO 08003KT 10SM CLR 21/19 A3015 RMK AO2 T02060191
K11R 191415Z AUTO 09004KT 7SM CLR 19/19 A3015 RMK AO2 T01900186
K11R 191355Z AUTO 00000KT 4SM BR CLR 18/18 A3015 RMK AO2 T01750175
K11R 191335Z AUTO 00000KT 3SM BR CLR 16/16 A3014 RMK AO2 T01560156
K11R 191315Z AUTO 00000KT 4SM BR SCT031 14/14 A3014 RMK AO2 T01380138
K11R 191255Z AUTO 00000KT 3SM BR CLR 13/13 A3013 RMK AO2 T01250125
K11R 191235Z AUTO 00000KT 3SM BR CLR 13/12 A3013 RMK AO2 T01250124
K11R 191215Z AUTO 00000KT 1 1/2SM BR BKN003 15/15 A3013 RMK AO2 T01450145
K11R 191155Z AUTO 05003KT 1/4SM FG OVC003 12/12 A3013 RMK AO2 T01200119 10162 20120
K11R 191135Z AUTO 00000KT 1/4SM FG OVC003 12/12 A3013 RMK AO2 T01210120
K11R 191115Z AUTO 00000KT 2SM BR OVC003 13/13 A3013 RMK AO2 T01260125
K11R 191055Z AUTO 00000KT 10SM SCT003 13/12 A3012 RMK AO2 T01250122
K11R 191035Z AUTO 00000KT 7SM SCT003 13/13 A3012 RMK AO2 T01300127
K11R 191015Z AUTO 00000KT 1 1/4SM BR SCT030 14/14 A3012 RMK AO2 T01410140
K11R 190955Z AUTO 00000KT 2SM BR SCT030 14/14 A3011 RMK AO2 T01410138
K11R 190935Z AUTO 00000KT 5SM BR SCT030 14/14 A3012 RMK AO2 T01400137
K11R 190915Z AUTO 00000KT 5SM BR SCT030 14/14 A3011 RMK AO2 T01400136
K11R 190855Z AUTO 00000KT 10SM CLR 14/13 A3012 RMK AO2 T01350131
K11R 190835Z AUTO 00000KT 4SM BR CLR 15/15 A3012 RMK AO2 T01490146
K11R 190815Z AUTO 00000KT 5SM BR CLR 14/14 A3013 RMK AO2 T01420139
K11R 190755Z AUTO 00000KT 10SM CLR 14/13 A3013 RMK AO2 T01350130
K11R 190735Z AUTO 00000KT 7SM CLR 14/14 A3013 RMK AO2 T01400135
K11R 190715Z AUTO 00000KT 10SM CLR 14/13 A3013 RMK AO2 T01380130
K11R 190655Z AUTO 00000KT 10SM CLR 16/15 A3013 RMK AO2 T01590153
K11R 190635Z AUTO 00000KT 10SM CLR 16/15 A3013 RMK AO2 T01610151
K11R 190615Z AUTO 00000KT 10SM CLR 16/14 A3013 RMK AO2 T01570141
K11R 190555Z AUTO 00000KT 10SM CLR 16/14 A3013 RMK AO2 T01600138 10227 20153 402770070
K11R 190535Z AUTO 00000KT 10SM CLR 17/14 A3013 RMK AO2 T01670140
K11R 190515Z AUTO 00000KT 10SM CLR 17/14 A3013 RMK AO2 T01680139
K11R 190455Z AUTO 00000KT 10SM CLR 17/14 A3013 RMK AO2 T01650135
K11R 190435Z AUTO 00000KT 10SM CLR 16/13 A3014 RMK AO2 T01610133
K11R 190415Z AUTO 00000KT 10SM CLR 16/14 A3014 RMK AO2 T01600136
K11R 190355Z AUTO 00000KT 10SM CLR 16/13 A3014 RMK AO2 T01550134
K11R 190335Z AUTO 00000KT 10SM CLR 15/14 A3014 RMK AO2 T01540135
K11R 190315Z AUTO 00000KT 10SM CLR 16/13 A3014 RMK AO2 T01640127
K11R 190255Z AUTO 00000KT 10SM CLR 17/13 A3013 RMK AO2 T01690131
K11R 190235Z AUTO 00000KT 10SM CLR 18/13 A3012 RMK AO2 T01780131
K11R 190215Z AUTO 00000KT 10SM CLR 19/13 A3012 RMK AO2 T01850132
K11R 190155Z AUTO 00000KT 10SM CLR 20/13 A3012 RMK AO2 T01980130
K11R 190135Z AUTO 00000KT 10SM CLR 20/13 A3012 RMK AO2 T01990130
K11R 190115Z AUTO 00000KT 10SM CLR 20/13 A3011 RMK AO2 T02020128
K11R 190055Z AUTO 00000KT 10SM CLR 21/13 A3011 RMK AO2 T02050127
K11R 190035Z AUTO 00000KT 10SM CLR 21/13 A3011 RMK AO2 T02090125
K11R 190015Z AUTO 00000KT 10SM CLR 22/12 A3011 RMK AO2 T02230123
K11R 182355Z AUTO 10003KT 10SM CLR 23/12 A3010 RMK AO2 T02280122 10277 20228
K11R 182335Z AUTO 09003KT 10SM CLR 24/12 A3010 RMK AO2 T02420120
K11R 182315Z AUTO 08003KT 10SM CLR 25/12 A3010 RMK AO2 T02530118
K11R 182255Z AUTO 09004KT 10SM CLR 26/11 A3010 RMK AO2 T02640113
K11R 182235Z AUTO 11004KT 10SM CLR 27/11 A3010 RMK AO2 T02700110
K11R 182215Z AUTO 16004KT 10SM CLR 28/11 A3010 RMK AO2 T02750111
K11R 182155Z AUTO 16003KT 10SM CLR 28/10 A3010 RMK AO2 T02750101
K11R 182135Z AUTO 20004KT 10SM CLR 28/10 A3010 RMK AO2 T02760104
K11R 182115Z AUTO 19003KT 10SM CLR 28/11 A3011 RMK AO2 T02760106
K11R 182055Z AUTO 11006KT 10SM CLR 28/10 A3012 RMK AO2 T02750100
K11R 182035Z AUTO 16006KT 10SM CLR 27/10 A3012 RMK AO2 T02740095
K11R 182015Z AUTO 17003KT 10SM CLR 27/10 A3012 RMK AO2 T02740103
K11R 181955Z AUTO 00000KT 10SM CLR 27/10 A3012 RMK AO2 T02680104
K11R 181935Z AUTO 00000KT 10SM CLR 27/10 A3013 RMK AO2 T02680101
K11R 181915Z AUTO 00000KT 10SM CLR 26/08 A3014 RMK AO2 T02600081
K11R 181855Z AUTO 16003KT 10SM CLR 26/09 A3015 RMK AO2 T02610085
K11R 181835Z AUTO 00000KT 10SM CLR 26/10 A3016 RMK AO2 T02560095
K11R 181815Z AUTO 21004KT 10SM CLR 25/09 A3017 RMK AO2 T02530085
K11R 181755Z AUTO 22004KT 10SM CLR 26/10 A3018 RMK AO2 T02570101 10257 20070
K11R 181735Z AUTO 19004KT 10SM CLR 25/10 A3018 RMK AO2 T02510103
K11R 181715Z AUTO 20005KT 10SM CLR 25/10 A3019 RMK AO2 T02450100
K11R 181655Z AUTO 15005KT 10SM CLR 24/12 A3019 RMK AO2 T02370119
K11R 181635Z AUTO 18005KT 10SM CLR 23/12 A3020 RMK AO2 T02310119
K11R 181615Z AUTO 15003KT 10SM CLR 22/11 A3020 RMK AO2 T02240110
K11R 181555Z AUTO 00000KT 10SM CLR 22/11 A3020 RMK AO2 T02160113
K11R 181535Z AUTO 00000KT 10SM CLR 20/12 A3020 RMK AO2 T02020118
K11R 181515Z AUTO 00000KT 10SM CLR 19/12 A3020 RMK AO2 T01870124
K11R 181455Z AUTO 00000KT 10SM CLR 17/12 A3020 RMK AO2 T01700122
K11R 181435Z AUTO 00000KT 10SM CLR 15/13 A3020 RMK AO2 T01510127
K11R 181415Z AUTO 00000KT 10SM CLR 14/13 A3020 RMK AO2 T01370128
K11R 181355Z AUTO 00000KT 10SM CLR 12/12 A3019 RMK AO2 T01220117
K11R 181335Z AUTO 00000KT 10SM CLR 10/10 A3018 RMK AO2 T00980095
K11R 181315Z AUTO 00000KT 10SM CLR 09/08 A3019 RMK AO2 T00860082
K11R 181255Z AUTO 00000KT 10SM CLR 07/07 A3018 RMK AO2 T00740071
K11R 181235Z AUTO 00000KT 10SM CLR 07/07 A3017 RMK AO2 T00720068
K11R 181215Z AUTO 00000KT 10SM CLR 08/07 A3017 RMK AO2 T00750071
K11R 181155Z AUTO 00000KT 10SM CLR 07/07 A3016 RMK AO2 T00730069 10100 20072
K11R 181135Z AUTO 00000KT 10SM CLR 08/07 A3016 RMK AO2 T00750072